Graham, NC

6:52 PM EDT on August 30, 2015 (GMT -0400)
Duchy Airpark | | Change Station
CLOSE
Current Station
Personal Weather Station
Location: Saxapahaw, NC
Elevation: 676 ft
Nearby Weather Stations

Elev 676 ft 35.98 °N, 79.27 °W | Updated 23 seconds ago

Overcast
Overcast
77.8 °F
Feels Like 80 °F
N
0.0
Wind Variable Wind from SSW
Gusts 1.0 mph

Today
High -- | Low -- °F
--% Chance of Precip.
Yesterday
High -- | Low -- °F
Precip. -- in
6:47 AM 7:47 PM
Full, 98% visible
Pressure 30.12 in
Visibility 10.0 miles
Clouds Overcast 11000 ft
Heat Index 80 °F
Dew Point 67 °F
Humidity 70%
Rainfall 0.00 in
Snow Depth Not available.
UV 1 out of 12
Pollen 7.80 out of 12
Air Quality Not available.
Flu Activity Not available.
METAR KBUY 302154Z AUTO 15003KT 10SM OVC110 26/18 A3013 RMK AO2 SLP198 T02610178
Pressure 30.12 in
Visibility 10.0 miles
Clouds Overcast 11000 ft
Heat Index 80 °F
Dew Point 67 °F
Humidity 70%
Rainfall 0.00 in
Snow Depth Not available.
UV 1 out of 12
Pollen 7.80 out of 12
Air Quality Not available.
Flu Activity Not available.
METAR KBUY 302154Z AUTO 15003KT 10SM OVC110 26/18 A3013 RMK AO2 SLP198 T02610178

10-Day Weather Forecast

×

Almanac

Astronomy

Aug. 30, 2015 Rise Set
Actual Time
Civil Twilight
Nautical Twilight
Astronomical Twilight
Moon
Length of Visible Light
Length of Day
Tomorrow will be .
, % of the Moon is Illuminated

Today's Extremes

State Highs State Lows

Community

WunderPhotos

Upload Photos

1,851,075 photos uploaded!

WunderBlogs® & News

Nearby

Air Quality

  Air Quality AQ Index Pollutant
Not available.

Snow Depth

Station Depth Elevation

Earthquake Activity

City Distance Mag. Time & Date
Minimum magnitude displayed is 2.5.

Coastal Water Temperatures

Place Temperature

Stations

Nearby Weather Stations

Station Location Temp. Windchill Dew Point Humidity Wind Precip. Elev Updated Type